Time;durP1;ratioP1;P1;durP2;ratioP2;P2;SDS_P1;SDS_P2;PMS_P1;PMS_P2;Temp;Humidity;BMP_temperature;BMP_pressure;BME280_temperature;BME280_humidity;BME280_pressure;Samples;Min_cycle;Max_cycle;Signal;HPM_P1;HPM_P2
2023/08/29 00:01:37;;;;;;;3.70;2.03;;;;;;;;;;5081202;28;20179;-56
2023/08/29 00:04:04;;;;;;;3.42;2.25;;;;;;;;;;5090397;28;20093;-56
2023/08/29 00:06:30;;;;;;;3.60;1.80;;;;;;;;;;5083069;28;20097;-56
2023/08/29 00:08:56;;;;;;;12.77;1.77;;;;;;;;;;5082155;28;20539;-57
2023/08/29 00:11:22;;;;;;;2.63;1.30;;;;;;;;;;5088375;28;20036;-56
2023/08/29 00:13:48;;;;;;;2.55;1.45;;;;;;;;;;5093463;28;20043;-56
2023/08/29 00:16:16;;;;;;;2.10;1.10;;;;;;;;;;5086452;28;20039;-57
2023/08/29 00:18:43;;;;;;;1.88;0.98;;;;;;;;;;5083676;28;20040;-56
2023/08/29 00:21:09;;;;;;;1.98;1.00;;;;;;;;;;5097938;28;20043;-57
2023/08/29 00:23:35;;;;;;;2.22;1.20;;;;;;;;;;5089028;28;20028;-57
2023/08/29 00:26:03;;;;;;;2.40;1.02;;;;;;;;;;5081947;28;20055;-56
2023/08/29 00:28:29;;;;;;;2.22;1.05;;;;;;;;;;5091952;28;20123;-56
2023/08/29 00:30:55;;;;;;;2.60;1.40;;;;;;;;;;5079086;28;20037;-56
2023/08/29 00:33:21;;;;;;;2.70;1.10;;;;;;;;;;5081800;28;20136;-57
2023/08/29 00:35:48;;;;;;;2.05;1.15;;;;;;;;;;5084106;28;20036;-56
2023/08/29 00:38:14;;;;;;;2.50;0.90;;;;;;;;;;5084275;28;20206;-57
2023/08/29 00:40:41;;;;;;;2.47;1.10;;;;;;;;;;5095148;28;20036;-57
2023/08/29 00:43:07;;;;;;;1.80;0.90;;;;;;;;;;5088438;28;20040;-56
2023/08/29 00:45:34;;;;;;;3.55;0.90;;;;;;;;;;5087046;28;20128;-57
2023/08/29 00:48:01;;;;;;;2.58;1.35;;;;;;;;;;5089875;28;20051;-56
2023/08/29 00:50:27;;;;;;;1.95;0.90;;;;;;;;;;5085159;28;20032;-56
2023/08/29 00:52:57;;;;;;;6.82;0.98;;;;;;;;;;5089490;28;20044;-57
2023/08/29 00:55:23;;;;;;;4.05;0.85;;;;;;;;;;5088878;28;20040;-56
2023/08/29 00:57:55;;;;;;;5.65;0.98;;;;;;;;;;5083659;28;20040;-56
2023/08/29 01:00:25;;;;;;;1.65;0.80;;;;;;;;;;5085318;28;20440;-57
2023/08/29 01:02:51;;;;;;;2.00;1.00;;;;;;;;;;5089272;28;20056;-56
2023/08/29 01:05:18;;;;;;;1.77;0.90;;;;;;;;;;5086524;28;20515;-56
2023/08/29 01:07:44;;;;;;;1.85;1.00;;;;;;;;;;5085714;28;20036;-57
2023/08/29 01:10:10;;;;;;;1.88;1.00;;;;;;;;;;5088808;28;20344;-56
2023/08/29 01:12:52;;;;;;;1.75;1.02;;;;;;;;;;5085858;28;20119;-57
2023/08/29 01:15:22;;;;;;;4.22;1.10;;;;;;;;;;5085213;28;20131;-56
2023/08/29 01:17:59;;;;;;;3.38;1.20;;;;;;;;;;5087290;28;20079;-56
2023/08/29 01:20:27;;;;;;;2.15;1.15;;;;;;;;;;5085164;28;20040;-57
2023/08/29 01:22:53;;;;;;;2.35;1.20;;;;;;;;;;5084960;28;20084;-56
2023/08/29 01:25:25;;;;;;;2.13;1.08;;;;;;;;;;5086161;28;20157;-56
2023/08/29 01:27:51;;;;;;;4.75;1.00;;;;;;;;;;5086379;28;20032;-57
2023/08/29 01:30:18;;;;;;;2.42;1.00;;;;;;;;;;5087666;28;20063;-57
2023/08/29 01:32:44;;;;;;;1.77;0.77;;;;;;;;;;5085791;28;20507;-57
2023/08/29 01:35:13;;;;;;;0.93;0.50;;;;;;;;;;5087212;28;20349;-56
2023/08/29 01:37:39;;;;;;;1.52;0.73;;;;;;;;;;5090941;28;20036;-56
2023/08/29 01:40:06;;;;;;;1.88;0.90;;;;;;;;;;5085855;28;20462;-56
2023/08/29 01:42:32;;;;;;;1.92;1.00;;;;;;;;;;5086474;28;20493;-57
2023/08/29 01:44:59;;;;;;;1.27;0.70;;;;;;;;;;5086276;28;20066;-56
2023/08/29 01:47:25;;;;;;;1.27;0.60;;;;;;;;;;5083524;28;20044;-56
2023/08/29 01:49:52;;;;;;;1.40;0.63;;;;;;;;;;5087366;28;20044;-57
2023/08/29 01:52:18;;;;;;;2.70;0.50;;;;;;;;;;5087838;28;20514;-57
2023/08/29 01:54:44;;;;;;;1.10;0.70;;;;;;;;;;5082332;28;20105;-57
2023/08/29 01:57:11;;;;;;;2.95;0.90;;;;;;;;;;5084690;28;20109;-57
2023/08/29 01:59:38;;;;;;;17.58;1.20;;;;;;;;;;5084590;28;20048;-57
2023/08/29 02:02:04;;;;;;;14.63;1.15;;;;;;;;;;5083683;28;20093;-57
2023/08/29 02:04:30;;;;;;;26.92;1.30;;;;;;;;;;5103481;28;20102;-56
2023/08/29 02:06:57;;;;;;;0.30;0.30;;;;;;;;;;5085070;28;20393;-57
2023/08/29 02:09:23;;;;;;;0.50;0.30;;;;;;;;;;5087795;28;20048;-57
2023/08/29 02:11:50;;;;;;;1.05;0.60;;;;;;;;;;5084330;28;20043;-56
2023/08/29 02:14:16;;;;;;;1.50;0.73;;;;;;;;;;5087371;28;20040;-57
2023/08/29 02:16:42;;;;;;;3.28;1.60;;;;;;;;;;5086195;28;20090;-57
2023/08/29 02:19:08;;;;;;;2.65;1.33;;;;;;;;;;5085886;28;20067;-56
2023/08/29 02:21:34;;;;;;;2.08;0.88;;;;;;;;;;5089105;28;20040;-56
2023/08/29 02:24:05;;;;;;;2.40;1.08;;;;;;;;;;5088883;28;20122;-57
2023/08/29 02:26:31;;;;;;;4.10;1.20;;;;;;;;;;5088673;28;20044;-56
2023/08/29 02:28:57;;;;;;;6.45;1.65;;;;;;;;;;5087470;28;20040;-56
2023/08/29 02:31:23;;;;;;;15.93;2.17;;;;;;;;;;5090153;28;20130;-57
2023/08/29 02:33:51;;;;;;;18.63;2.17;;;;;;;;;;5092068;28;20117;-56
2023/08/29 02:36:17;;;;;;;2.53;1.20;;;;;;;;;;5088190;28;20100;-57
2023/08/29 02:38:43;;;;;;;1.10;0.63;;;;;;;;;;5091836;28;20062;-57
2023/08/29 02:41:11;;;;;;;3.03;0.75;;;;;;;;;;5091332;28;20434;-57
2023/08/29 02:43:38;;;;;;;1.45;0.70;;;;;;;;;;5089698;28;20455;-56
2023/08/29 02:46:04;;;;;;;2.13;1.13;;;;;;;;;;5087137;28;21646;-56
2023/08/29 02:48:30;;;;;;;3.00;1.20;;;;;;;;;;5084073;28;20036;-56
2023/08/29 02:50:56;;;;;;;2.88;1.55;;;;;;;;;;5081450;28;20044;-56
2023/08/29 02:53:23;;;;;;;3.97;1.50;;;;;;;;;;5081690;28;20068;-56
2023/08/29 02:55:53;;;;;;;5.43;2.17;;;;;;;;;;5082259;28;20097;-57
2023/08/29 02:58:19;;;;;;;5.15;2.55;;;;;;;;;;5085064;28;20085;-56
2023/08/29 03:00:47;;;;;;;4.53;2.35;;;;;;;;;;5088244;28;20091;-57
2023/08/29 03:03:13;;;;;;;4.57;2.33;;;;;;;;;;5086104;28;20063;-56
2023/08/29 03:05:42;;;;;;;6.35;2.40;;;;;;;;;;5094764;28;20155;-59
2023/08/29 03:08:08;;;;;;;32.53;2.65;;;;;;;;;;5083163;28;20083;-56
2023/08/29 03:10:38;;;;;;;6.43;1.58;;;;;;;;;;5087556;28;20044;-56
2023/08/29 03:13:04;;;;;;;2.72;1.42;;;;;;;;;;5081637;28;20039;-55
2023/08/29 03:15:33;;;;;;;3.10;1.50;;;;;;;;;;5081582;28;20049;-55
2023/08/29 03:18:00;;;;;;;4.38;1.35;;;;;;;;;;5083764;28;20090;-56
2023/08/29 03:20:26;;;;;;;3.95;1.13;;;;;;;;;;5084132;28;20054;-55
2023/08/29 03:22:53;;;;;;;17.02;1.88;;;;;;;;;;5084711;28;20398;-56
2023/08/29 03:25:20;;;;;;;36.03;2.78;;;;;;;;;;5085366;28;20348;-56
2023/08/29 03:27:46;;;;;;;90.47;3.20;;;;;;;;;;5082234;28;20386;-56
2023/08/29 03:30:13;;;;;;;37.08;1.70;;;;;;;;;;5084372;28;21612;-56
2023/08/29 03:32:39;;;;;;;37.10;1.92;;;;;;;;;;5089534;28;20048;-56
2023/08/29 03:35:05;;;;;;;29.48;2.08;;;;;;;;;;5089245;28;20059;-55
2023/08/29 03:37:31;;;;;;;10.77;1.65;;;;;;;;;;5087853;28;20578;-56
2023/08/29 03:39:58;;;;;;;4.40;1.50;;;;;;;;;;5082307;28;20036;-56
2023/08/29 03:42:24;;;;;;;2.85;1.08;;;;;;;;;;5082462;28;20047;-56
2023/08/29 03:44:50;;;;;;;2.10;1.00;;;;;;;;;;5082594;28;20543;-56
2023/08/29 03:47:17;;;;;;;4.45;1.77;;;;;;;;;;5081862;28;20134;-56
2023/08/29 03:49:44;;;;;;;3.15;1.58;;;;;;;;;;5083014;28;20475;-56
2023/08/29 03:52:10;;;;;;;3.55;1.80;;;;;;;;;;5087786;28;20399;-56
2023/08/29 03:54:36;;;;;;;3.95;1.90;;;;;;;;;;5086030;28;20127;-56
2023/08/29 03:57:02;;;;;;;13.93;2.60;;;;;;;;;;5083983;28;20078;-56
2023/08/29 03:59:28;;;;;;;5.50;2.00;;;;;;;;;;5092178;28;20082;-56
2023/08/29 04:01:54;;;;;;;6.03;2.15;;;;;;;;;;5093696;28;20096;-56
2023/08/29 04:04:22;;;;;;;3.47;2.00;;;;;;;;;;5089917;28;20044;-56
2023/08/29 04:06:48;;;;;;;6.20;2.17;;;;;;;;;;5086677;28;20056;-56
2023/08/29 04:09:14;;;;;;;3.05;1.67;;;;;;;;;;5087689;28;20127;-56
2023/08/29 04:11:40;;;;;;;4.05;2.00;;;;;;;;;;5085664;28;20092;-55
2023/08/29 04:14:07;;;;;;;3.22;1.25;;;;;;;;;;5081487;28;20048;-56
2023/08/29 04:16:33;;;;;;;1.85;1.00;;;;;;;;;;5082703;28;20145;-56
2023/08/29 04:19:00;;;;;;;4.25;1.30;;;;;;;;;;5082251;28;20039;-56
2023/08/29 04:21:26;;;;;;;3.92;2.20;;;;;;;;;;5083640;28;20047;-56
2023/08/29 04:23:52;;;;;;;3.75;2.20;;;;;;;;;;5080998;28;20112;-56
2023/08/29 04:26:18;;;;;;;3.63;2.13;;;;;;;;;;5082934;28;20048;-56
2023/08/29 04:28:44;;;;;;;4.05;2.13;;;;;;;;;;5088170;28;20048;-56
2023/08/29 04:31:11;;;;;;;3.78;2.33;;;;;;;;;;5087519;28;20043;-56
2023/08/29 04:33:39;;;;;;;3.85;2.25;;;;;;;;;;5091998;28;20531;-56
2023/08/29 04:36:05;;;;;;;3.40;1.85;;;;;;;;;;5092372;28;20586;-56
2023/08/29 04:38:31;;;;;;;3.75;1.88;;;;;;;;;;5094325;28;20039;-56
2023/08/29 04:40:57;;;;;;;4.30;2.58;;;;;;;;;;5093628;28;20048;-56
2023/08/29 04:43:24;;;;;;;4.60;2.85;;;;;;;;;;5087223;28;20141;-56
2023/08/29 04:45:50;;;;;;;4.65;2.78;;;;;;;;;;5090594;28;20080;-55
2023/08/29 04:48:17;;;;;;;4.68;2.95;;;;;;;;;;5085313;28;20044;-56
2023/08/29 04:50:47;;;;;;;6.03;2.55;;;;;;;;;;5085738;28;20032;-56
2023/08/29 04:53:13;;;;;;;5.53;2.92;;;;;;;;;;5088749;28;20040;-56
2023/08/29 04:55:39;;;;;;;8.38;2.75;;;;;;;;;;5088814;28;20086;-55
2023/08/29 04:58:05;;;;;;;10.82;2.80;;;;;;;;;;5086088;28;20040;-55
2023/08/29 05:00:32;;;;;;;19.35;3.17;;;;;;;;;;5085598;28;20487;-56
2023/08/29 05:02:58;;;;;;;15.23;4.05;;;;;;;;;;5090267;28;20046;-56
2023/08/29 05:05:24;;;;;;;8.38;2.70;;;;;;;;;;5088362;28;20040;-55
2023/08/29 05:07:50;;;;;;;4.47;1.83;;;;;;;;;;5107733;27;20120;-56
2023/08/29 05:10:16;;;;;;;4.75;1.48;;;;;;;;;;5094801;28;20051;-56
2023/08/29 05:12:43;;;;;;;19.50;1.67;;;;;;;;;;5093347;28;20040;-56
2023/08/29 05:15:09;;;;;;;22.90;1.75;;;;;;;;;;5097374;28;20051;-56
2023/08/29 05:17:35;;;;;;;20.20;2.00;;;;;;;;;;5096336;28;20032;-56
2023/08/29 05:20:01;;;;;;;17.63;1.48;;;;;;;;;;5092838;28;20040;-56
2023/08/29 05:22:27;;;;;;;1.88;1.00;;;;;;;;;;5093375;28;20510;-57
2023/08/29 05:24:54;;;;;;;1.80;0.90;;;;;;;;;;5092793;28;20036;-56
2023/08/29 05:27:20;;;;;;;2.60;1.10;;;;;;;;;;5091655;28;20096;-56
2023/08/29 05:29:46;;;;;;;1.77;0.90;;;;;;;;;;5090385;28;20044;-56
2023/08/29 05:32:12;;;;;;;2.00;1.00;;;;;;;;;;5086113;28;20053;-56
2023/08/29 05:34:39;;;;;;;2.50;1.40;;;;;;;;;;5101340;28;20044;-57
2023/08/29 05:37:05;;;;;;;3.33;1.35;;;;;;;;;;5092239;28;20040;-56
2023/08/29 05:39:31;;;;;;;3.60;1.33;;;;;;;;;;5088753;28;20047;-57
2023/08/29 05:41:57;;;;;;;2.60;1.30;;;;;;;;;;5089900;28;20039;-57
2023/08/29 05:44:23;;;;;;;3.45;2.00;;;;;;;;;;5104435;27;20500;-56
2023/08/29 05:46:50;;;;;;;2.85;1.60;;;;;;;;;;5094273;28;20388;-56
2023/08/29 05:49:16;;;;;;;4.65;1.80;;;;;;;;;;5101460;28;20055;-56
2023/08/29 05:51:42;;;;;;;4.38;2.00;;;;;;;;;;5096636;28;20396;-57
2023/08/29 05:54:08;;;;;;;4.38;2.45;;;;;;;;;;5092073;28;20134;-56
2023/08/29 05:56:35;;;;;;;4.40;2.55;;;;;;;;;;5091889;28;20380;-57
2023/08/29 05:59:01;;;;;;;4.75;2.70;;;;;;;;;;5089259;28;20131;-56
2023/08/29 06:01:27;;;;;;;5.65;2.65;;;;;;;;;;5090166;28;20043;-56
2023/08/29 06:03:53;;;;;;;9.65;3.20;;;;;;;;;;5093021;28;20051;-57
2023/08/29 06:06:20;;;;;;;6.28;3.50;;;;;;;;;;5091359;28;20097;-57
2023/08/29 06:08:46;;;;;;;9.65;4.72;;;;;;;;;;5083832;28;20058;-57
2023/08/29 06:11:13;;;;;;;7.40;4.53;;;;;;;;;;5101589;28;20040;-57
2023/08/29 06:13:39;;;;;;;7.22;5.10;;;;;;;;;;5088343;28;20076;-67
2023/08/29 06:16:06;;;;;;;8.55;4.75;;;;;;;;;;5103149;27;20050;-66
2023/08/29 06:18:35;;;;;;;7.97;5.35;;;;;;;;;;5101994;28;20437;-57
2023/08/29 06:21:02;;;;;;;10.38;5.07;;;;;;;;;;5089843;28;20063;-57
2023/08/29 06:23:28;;;;;;;7.43;4.93;;;;;;;;;;5090421;28;20058;-58
2023/08/29 06:25:55;;;;;;;9.52;5.50;;;;;;;;;;5088072;28;20036;-57
2023/08/29 06:28:21;;;;;;;7.07;5.28;;;;;;;;;;5088647;28;20050;-57
2023/08/29 06:30:48;;;;;;;11.15;6.03;;;;;;;;;;5088277;28;20036;-58
2023/08/29 06:33:14;;;;;;;15.05;6.75;;;;;;;;;;5092877;28;20036;-57
2023/08/29 06:35:40;;;;;;;8.68;5.70;;;;;;;;;;5093467;28;20158;-58
2023/08/29 06:38:07;;;;;;;11.90;5.93;;;;;;;;;;5089887;28;20115;-57
2023/08/29 06:40:33;;;;;;;7.80;5.32;;;;;;;;;;5092837;28;20040;-58
2023/08/29 06:43:00;;;;;;;10.73;5.80;;;;;;;;;;5090908;28;20093;-58
2023/08/29 06:45:26;;;;;;;7.95;5.68;;;;;;;;;;5089922;28;20040;-58
2023/08/29 06:47:52;;;;;;;7.35;5.13;;;;;;;;;;5091558;28;20542;-58
2023/08/29 06:50:18;;;;;;;10.00;5.57;;;;;;;;;;5091124;28;20074;-58
2023/08/29 06:52:44;;;;;;;9.85;5.57;;;;;;;;;;5091622;28;20075;-58
2023/08/29 06:55:11;;;;;;;9.73;6.07;;;;;;;;;;5091683;28;20048;-57
2023/08/29 06:57:37;;;;;;;7.40;5.07;;;;;;;;;;5091074;28;20050;-58
2023/08/29 07:00:04;;;;;;;8.65;6.15;;;;;;;;;;5090307;28;20123;-58
2023/08/29 07:02:30;;;;;;;10.90;6.15;;;;;;;;;;5091801;28;20130;-58
2023/08/29 07:04:57;;;;;;;10.82;5.10;;;;;;;;;;5090908;28;20093;-58
2023/08/29 07:07:23;;;;;;;9.55;5.38;;;;;;;;;;5091525;28;20032;-58
2023/08/29 07:09:49;;;;;;;8.48;6.03;;;;;;;;;;5091535;28;20036;-57
2023/08/29 07:12:15;;;;;;;6.90;5.22;;;;;;;;;;5088057;28;20097;-58
2023/08/29 07:14:41;;;;;;;7.93;6.13;;;;;;;;;;5090417;28;20483;-58
2023/08/29 07:17:07;;;;;;;8.18;6.05;;;;;;;;;;5090587;28;20032;-57
2023/08/29 07:19:34;;;;;;;8.13;5.30;;;;;;;;;;5090344;28;20097;-57
2023/08/29 07:22:00;;;;;;;9.35;5.50;;;;;;;;;;5091369;28;20040;-57
2023/08/29 07:24:26;;;;;;;11.55;4.93;;;;;;;;;;5091194;28;20059;-57
2023/08/29 07:26:52;;;;;;;7.07;4.85;;;;;;;;;;5090350;28;20032;-58
2023/08/29 07:29:19;;;;;;;10.60;5.60;;;;;;;;;;5089555;28;20503;-57
2023/08/29 07:31:46;;;;;;;6.20;3.75;;;;;;;;;;5090585;28;20044;-58
2023/08/29 07:34:15;;;;;;;8.15;3.58;;;;;;;;;;5090852;28;20079;-57
2023/08/29 07:36:42;;;;;;;5.43;3.40;;;;;;;;;;5091272;28;20134;-58
2023/08/29 07:39:08;;;;;;;6.30;3.35;;;;;;;;;;5090328;28;20048;-58
2023/08/29 07:41:34;;;;;;;5.18;3.03;;;;;;;;;;5090268;28;20103;-57
2023/08/29 07:44:00;;;;;;;6.68;2.85;;;;;;;;;;5089690;28;20051;-58
2023/08/29 07:46:27;;;;;;;6.78;2.90;;;;;;;;;;5089671;28;20435;-57
2023/08/29 07:48:53;;;;;;;5.00;2.75;;;;;;;;;;5090926;28;20032;-57
2023/08/29 07:51:19;;;;;;;5.90;3.35;;;;;;;;;;5087756;28;20117;-57
2023/08/29 07:53:45;;;;;;;6.75;2.67;;;;;;;;;;5085643;28;20135;-58
2023/08/29 07:56:12;;;;;;;5.95;2.50;;;;;;;;;;5090774;28;20067;-57
2023/08/29 07:58:38;;;;;;;4.53;2.20;;;;;;;;;;5087278;28;20404;-57
2023/08/29 08:01:04;;;;;;;10.32;2.78;;;;;;;;;;5089678;28;20058;-57
2023/08/29 08:03:30;;;;;;;3.90;2.10;;;;;;;;;;5089937;28;20044;-58
2023/08/29 08:05:56;;;;;;;6.03;2.33;;;;;;;;;;5089577;28;20476;-58
2023/08/29 08:08:23;;;;;;;3.88;1.80;;;;;;;;;;5090000;28;20044;-58
2023/08/29 08:10:49;;;;;;;4.43;1.70;;;;;;;;;;5090401;28;20136;-57
2023/08/29 08:13:15;;;;;;;3.47;1.38;;;;;;;;;;5090889;28;20036;-58
2023/08/29 08:15:41;;;;;;;3.90;1.58;;;;;;;;;;5090001;28;20044;-58
2023/08/29 08:18:08;;;;;;;3.28;1.45;;;;;;;;;;5089441;28;20510;-58
2023/08/29 08:20:34;;;;;;;3.15;1.88;;;;;;;;;;5090784;28;20063;-58
2023/08/29 08:23:00;;;;;;;4.53;1.77;;;;;;;;;;5075696;28;20384;-58
2023/08/29 08:25:26;;;;;;;5.13;1.83;;;;;;;;;;5089459;28;20051;-58
2023/08/29 08:27:53;;;;;;;3.47;1.63;;;;;;;;;;5089512;28;20520;-58
2023/08/29 08:30:19;;;;;;;6.38;1.77;;;;;;;;;;5090378;28;20048;-57
2023/08/29 08:32:45;;;;;;;4.25;1.83;;;;;;;;;;5088431;28;20525;-58
2023/08/29 08:35:11;;;;;;;5.30;1.92;;;;;;;;;;5089779;28;20045;-58
2023/08/29 08:37:37;;;;;;;5.63;2.30;;;;;;;;;;5090318;28;20036;-58
2023/08/29 08:40:09;;;;;;;3.80;2.22;;;;;;;;;;5089025;28;20071;-58
2023/08/29 08:42:37;;;;;;;9.60;3.00;;;;;;;;;;5088176;28;20097;-57
2023/08/29 08:45:05;;;;;;;5.30;2.85;;;;;;;;;;5090142;28;20036;-58
2023/08/29 08:47:33;;;;;;;6.32;3.25;;;;;;;;;;5090383;28;20055;-58
2023/08/29 08:49:59;;;;;;;5.28;3.05;;;;;;;;;;5089122;28;20047;-58
2023/08/29 08:52:25;;;;;;;5.03;3.10;;;;;;;;;;5090137;28;20202;-57
2023/08/29 08:54:52;;;;;;;5.28;3.10;;;;;;;;;;5088047;28;20051;-58
2023/08/29 08:57:18;;;;;;;6.22;2.72;;;;;;;;;;5089354;28;20044;-58
2023/08/29 08:59:44;;;;;;;5.80;2.45;;;;;;;;;;5090129;28;20491;-58
2023/08/29 09:02:15;;;;;;;3.20;1.55;;;;;;;;;;5087229;28;20039;-58
2023/08/29 09:04:42;;;;;;;5.45;1.50;;;;;;;;;;5089290;28;20055;-58
2023/08/29 09:07:08;;;;;;;3.05;1.63;;;;;;;;;;5090025;28;20536;-58
2023/08/29 09:09:34;;;;;;;2.70;1.30;;;;;;;;;;5090224;28;20043;-57
2023/08/29 09:12:00;;;;;;;3.33;1.50;;;;;;;;;;5089369;28;20044;-58
2023/08/29 09:14:27;;;;;;;3.08;1.35;;;;;;;;;;5093792;28;20048;-58
2023/08/29 09:16:57;;;;;;;4.50;1.83;;;;;;;;;;5092774;28;20036;-57
2023/08/29 09:19:23;;;;;;;3.80;1.70;;;;;;;;;;5092822;28;20054;-58
2023/08/29 09:21:50;;;;;;;4.00;1.67;;;;;;;;;;5093545;28;20036;-58
2023/08/29 09:24:23;;;;;;;6.20;2.00;;;;;;;;;;5091749;28;20353;-57
2023/08/29 09:26:49;;;;;;;;;;;;;;;;;;5092194;28;20476;-57
2023/08/29 09:29:17;;;;;;;2.85;1.80;;;;;;;;;;5088936;28;19962;-57
2023/08/29 09:31:44;;;;;;;3.17;1.70;;;;;;;;;;5092595;28;20044;-57
2023/08/29 09:34:10;;;;;;;4.65;1.90;;;;;;;;;;5092366;28;20123;-58
2023/08/29 09:36:36;;;;;;;4.35;2.03;;;;;;;;;;5079041;28;20047;-57
2023/08/29 09:39:03;;;;;;;4.82;2.58;;;;;;;;;;5090884;28;20144;-57
2023/08/29 09:41:29;;;;;;;4.50;2.15;;;;;;;;;;5092738;28;20072;-57
2023/08/29 09:43:56;;;;;;;4.15;2.25;;;;;;;;;;5092988;28;20044;-57
2023/08/29 09:46:22;;;;;;;3.47;1.63;;;;;;;;;;5092121;28;20146;-56
2023/08/29 09:48:55;;;;;;;3.25;1.60;;;;;;;;;;5093373;28;20099;-57
2023/08/29 09:51:25;;;;;;;3.92;2.00;;;;;;;;;;5093055;28;20496;-58
2023/08/29 09:53:51;;;;;;;5.07;2.05;;;;;;;;;;5092049;28;20083;-57
2023/08/29 09:56:19;;;;;;;4.53;2.10;;;;;;;;;;5092368;28;20048;-58
2023/08/29 09:58:48;;;;;;;5.05;2.55;;;;;;;;;;5087667;28;20132;-64
2023/08/29 10:01:15;;;;;;;3.40;1.85;;;;;;;;;;5090529;28;20173;-58
2023/08/29 10:03:42;;;;;;;5.13;2.45;;;;;;;;;;5108165;28;20348;-58
2023/08/29 10:06:10;;;;;;;3.30;2.10;;;;;;;;;;5093316;28;20399;-58
2023/08/29 10:08:36;;;;;;;2.95;1.65;;;;;;;;;;5091978;28;20075;-58
2023/08/29 10:11:03;;;;;;;3.00;1.60;;;;;;;;;;5092057;28;20038;-58
2023/08/29 10:13:29;;;;;;;3.28;1.88;;;;;;;;;;5092110;28;20044;-58
2023/08/29 10:15:56;;;;;;;3.35;2.00;;;;;;;;;;5092267;28;20483;-58
2023/08/29 10:18:23;;;;;;;5.82;2.03;;;;;;;;;;5092494;28;20120;-58
2023/08/29 10:20:49;;;;;;;3.92;1.58;;;;;;;;;;5091511;28;20556;-58
2023/08/29 10:23:15;;;;;;;2.70;1.50;;;;;;;;;;5091228;28;20056;-58
2023/08/29 10:25:43;;;;;;;4.13;1.70;;;;;;;;;;5084312;28;20036;-58
2023/08/29 10:28:11;;;;;;;3.53;1.85;;;;;;;;;;5088684;28;20044;-58
2023/08/29 10:30:39;;;;;;;4.03;1.80;;;;;;;;;;5089869;28;20387;-58
2023/08/29 10:33:06;;;;;;;3.67;1.92;;;;;;;;;;5090287;28;20044;-58
2023/08/29 10:35:33;;;;;;;4.15;1.70;;;;;;;;;;5089749;28;20047;-58
2023/08/29 10:38:07;;;;;;;3.75;1.95;;;;;;;;;;5092092;28;20068;-59
2023/08/29 10:40:35;;;;;;;4.25;1.58;;;;;;;;;;5091073;28;20115;-58
2023/08/29 10:43:02;;;;;;;3.85;1.90;;;;;;;;;;5089695;28;20044;-57
2023/08/29 10:45:47;;;;;;;4.10;1.90;;;;;;;;;;5091958;28;20103;-57
2023/08/29 10:48:17;;;;;;;3.95;1.65;;;;;;;;;;5089843;28;20095;-57
2023/08/29 10:50:47;;;;;;;4.10;1.60;;;;;;;;;;5089829;28;20088;-57
2023/08/29 10:53:18;;;;;;;3.83;1.60;;;;;;;;;;5090288;28;20044;-57
2023/08/29 10:55:57;;;;;;;2.88;1.50;;;;;;;;;;5090899;28;20064;-57
2023/08/29 10:58:39;;;;;;;3.22;1.90;;;;;;;;;;5091917;28;20097;-58
2023/08/29 11:01:06;;;;;;;3.60;1.95;;;;;;;;;;5079011;28;20047;-57
2023/08/29 11:03:48;;;;;;;6.78;1.92;;;;;;;;;;5090979;28;20089;-57
2023/08/29 11:06:24;;;;;;;4.57;1.52;;;;;;;;;;5079556;28;20056;-57
2023/08/29 11:08:51;;;;;;;4.25;1.50;;;;;;;;;;5091583;28;20126;-57
2023/08/29 11:11:18;;;;;;;5.15;1.73;;;;;;;;;;5090534;28;20415;-57
2023/08/29 11:14:14;;;;;;;3.88;2.00;;;;;;;;;;5091450;28;20075;-58
2023/08/29 11:17:00;;;;;;;3.55;1.90;;;;;;;;;;5075781;28;20147;-58
2023/08/29 11:19:26;;;;;;;3.05;1.40;;;;;;;;;;5088652;28;20125;-57
2023/08/29 11:21:52;;;;;;;5.80;1.60;;;;;;;;;;5091481;28;20503;-58
2023/08/29 11:24:21;;;;;;;4.13;1.83;;;;;;;;;;5090525;28;20078;-58
2023/08/29 11:26:47;;;;;;;3.78;1.40;;;;;;;;;;5091192;28;20457;-58
2023/08/29 11:29:13;;;;;;;4.03;2.03;;;;;;;;;;5090923;28;20487;-58
2023/08/29 11:31:41;;;;;;;3.78;2.28;;;;;;;;;;5090577;28;20066;-58
2023/08/29 11:34:14;;;;;;;4.05;2.05;;;;;;;;;;5091026;28;20040;-57
2023/08/29 11:36:42;;;;;;;3.85;2.13;;;;;;;;;;5077008;28;20182;-58
2023/08/29 11:39:08;;;;;;;4.25;2.20;;;;;;;;;;5090076;28;20503;-57
2023/08/29 11:41:35;;;;;;;4.13;1.88;;;;;;;;;;5091104;28;20077;-58
2023/08/29 11:44:01;;;;;;;3.80;1.45;;;;;;;;;;5090975;28;20172;-57
2023/08/29 11:46:34;;;;;;;4.60;2.08;;;;;;;;;;5089899;28;20043;-57
2023/08/29 11:49:00;;;;;;;5.00;2.10;;;;;;;;;;5089298;28;20048;-58
2023/08/29 11:51:27;;;;;;;5.90;2.08;;;;;;;;;;5089540;28;20218;-58
2023/08/29 11:53:53;;;;;;;4.80;1.92;;;;;;;;;;5089762;28;20048;-58
2023/08/29 11:56:19;;;;;;;5.18;2.30;;;;;;;;;;5091081;28;20043;-57
2023/08/29 11:58:45;;;;;;;4.35;2.00;;;;;;;;;;5090772;28;20040;-58
2023/08/29 12:01:12;;;;;;;3.60;1.70;;;;;;;;;;5089980;28;20124;-58
2023/08/29 12:03:38;;;;;;;4.03;2.03;;;;;;;;;;5090814;28;20087;-58
2023/08/29 12:06:10;;;;;;;5.32;2.20;;;;;;;;;;5089843;28;20040;-57
2023/08/29 12:08:44;;;;;;;4.47;1.52;;;;;;;;;;5090566;28;20040;-58
2023/08/29 12:11:13;;;;;;;4.07;1.92;;;;;;;;;;5072461;28;20041;-58
2023/08/29 12:13:41;;;;;;;4.78;2.40;;;;;;;;;;5083011;28;20040;-57
2023/08/29 12:16:16;;;;;;;3.92;1.80;;;;;;;;;;5090703;28;20044;-57
2023/08/29 12:18:42;;;;;;;4.43;2.17;;;;;;;;;;5090519;28;20044;-57
2023/08/29 12:21:12;;;;;;;4.57;2.47;;;;;;;;;;5088292;28;20036;-58
2023/08/29 12:23:38;;;;;;;3.67;1.80;;;;;;;;;;5090498;28;20044;-57
2023/08/29 12:26:05;;;;;;;3.95;2.10;;;;;;;;;;5090517;28;20036;-57
2023/08/29 12:28:31;;;;;;;3.65;2.00;;;;;;;;;;5089764;28;20060;-57
2023/08/29 12:30:57;;;;;;;4.30;2.28;;;;;;;;;;5090409;28;20040;-57
2023/08/29 12:33:24;;;;;;;3.95;2.20;;;;;;;;;;5090530;28;20044;-58
2023/08/29 12:35:51;;;;;;;4.10;2.15;;;;;;;;;;5089585;28;20040;-57
2023/08/29 12:38:18;;;;;;;3.58;2.00;;;;;;;;;;5090133;28;20051;-57
2023/08/29 12:40:44;;;;;;;4.47;2.42;;;;;;;;;;5090491;28;20115;-57
2023/08/29 12:43:12;;;;;;;4.97;2.42;;;;;;;;;;5089430;28;20043;-57
2023/08/29 12:45:39;;;;;;;6.10;2.75;;;;;;;;;;5090224;28;20463;-58
2023/08/29 12:48:05;;;;;;;3.45;2.10;;;;;;;;;;5093378;28;20166;-57
2023/08/29 12:50:31;;;;;;;8.27;2.70;;;;;;;;;;5092003;28;20102;-57
2023/08/29 12:52:58;;;;;;;4.40;2.03;;;;;;;;;;5093272;28;20491;-57
2023/08/29 12:55:25;;;;;;;4.22;2.17;;;;;;;;;;5093421;28;20147;-57
2023/08/29 12:57:52;;;;;;;5.35;2.13;;;;;;;;;;5094041;28;20050;-57
2023/08/29 13:00:18;;;;;;;5.55;2.53;;;;;;;;;;5093867;28;20479;-58
2023/08/29 13:02:45;;;;;;;4.00;2.50;;;;;;;;;;5093137;28;20482;-57
2023/08/29 13:05:11;;;;;;;4.18;2.17;;;;;;;;;;5093850;28;20040;-57
2023/08/29 13:07:37;;;;;;;3.50;2.25;;;;;;;;;;5093963;28;20047;-57
2023/08/29 13:10:07;;;;;;;3.95;2.13;;;;;;;;;;5092903;28;20063;-57
2023/08/29 13:12:34;;;;;;;4.25;2.30;;;;;;;;;;5093723;28;20078;-57
2023/08/29 13:15:00;;;;;;;5.00;2.50;;;;;;;;;;5093805;28;20066;-57
2023/08/29 13:17:26;;;;;;;3.45;2.28;;;;;;;;;;5091363;28;20048;-57
2023/08/29 13:19:53;;;;;;;3.95;2.15;;;;;;;;;;5093023;28;20043;-57
2023/08/29 13:22:19;;;;;;;4.05;2.03;;;;;;;;;;5092839;28;20051;-58
2023/08/29 13:24:45;;;;;;;4.68;2.47;;;;;;;;;;5092348;28;20032;-57
2023/08/29 13:27:11;;;;;;;4.80;2.58;;;;;;;;;;5093531;28;20492;-57
2023/08/29 13:29:37;;;;;;;4.35;2.55;;;;;;;;;;5093255;28;20048;-57
2023/08/29 13:32:04;;;;;;;5.45;2.63;;;;;;;;;;5092594;28;20047;-57
2023/08/29 13:34:31;;;;;;;5.93;2.80;;;;;;;;;;5093491;28;20052;-58
2023/08/29 13:36:57;;;;;;;4.30;2.75;;;;;;;;;;5093478;28;20048;-57
2023/08/29 13:39:23;;;;;;;4.50;2.70;;;;;;;;;;5092529;28;20040;-57
2023/08/29 13:41:49;;;;;;;4.88;2.28;;;;;;;;;;5093192;28;20046;-57
2023/08/29 13:44:16;;;;;;;5.25;2.70;;;;;;;;;;5091737;28;20395;-57
2023/08/29 13:46:45;;;;;;;4.55;2.90;;;;;;;;;;5092282;28;20103;-58
2023/08/29 13:49:11;;;;;;;4.88;2.42;;;;;;;;;;5092815;28;20078;-57
2023/08/29 13:51:37;;;;;;;5.95;2.47;;;;;;;;;;5091283;28;20436;-58
2023/08/29 13:54:04;;;;;;;4.63;2.50;;;;;;;;;;5093007;28;20036;-58
2023/08/29 13:56:30;;;;;;;4.78;2.10;;;;;;;;;;5092893;28;20155;-58
2023/08/29 13:58:58;;;;;;;3.60;2.22;;;;;;;;;;5091083;28;20063;-58
2023/08/29 14:01:24;;;;;;;4.93;2.17;;;;;;;;;;5091774;28;20187;-58
2023/08/29 14:03:50;;;;;;;3.78;2.15;;;;;;;;;;5092090;28;20040;-57
2023/08/29 14:06:16;;;;;;;3.55;2.20;;;;;;;;;;5092140;28;20097;-57
2023/08/29 14:08:42;;;;;;;4.85;2.08;;;;;;;;;;5092529;28;20044;-57
2023/08/29 14:11:09;;;;;;;5.78;2.65;;;;;;;;;;5090960;28;21718;-57
2023/08/29 14:13:35;;;;;;;3.40;1.90;;;;;;;;;;5091869;28;20040;-57
2023/08/29 14:16:04;;;;;;;4.53;2.30;;;;;;;;;;5092662;28;20501;-57
2023/08/29 14:18:31;;;;;;;5.30;2.88;;;;;;;;;;5092503;28;20046;-57
2023/08/29 14:20:57;;;;;;;4.82;2.00;;;;;;;;;;5091558;28;20050;-58
2023/08/29 14:23:24;;;;;;;3.85;1.80;;;;;;;;;;5092477;28;20040;-58
2023/08/29 14:25:50;;;;;;;4.15;1.92;;;;;;;;;;5082725;28;20101;-57
2023/08/29 14:28:17;;;;;;;4.15;2.25;;;;;;;;;;5090993;28;20043;-56
2023/08/29 14:30:48;;;;;;;3.28;2.10;;;;;;;;;;5090112;28;20484;-57
2023/08/29 14:33:14;;;;;;;3.78;1.90;;;;;;;;;;5091393;28;20130;-58
2023/08/29 14:35:41;;;;;;;5.15;2.25;;;;;;;;;;5086467;28;20688;-58
2023/08/29 14:38:07;;;;;;;4.35;2.22;;;;;;;;;;5089969;28;20426;-58
2023/08/29 14:40:33;;;;;;;3.65;1.88;;;;;;;;;;5093907;28;20462;-58
2023/08/29 14:42:59;;;;;;;3.65;1.77;;;;;;;;;;5092300;28;20040;-58